sensor_id;sensor_type;location;lat;lon;timestamp;pressure;altitude;pressure_sealevel;temperature;humidity
20987;BME280;10652;50.306;8.570;2023-06-10T00:02:06;97796.25;;;16.54;70.80
20987;BME280;10652;50.306;8.570;2023-06-10T00:06:09;97796.53;;;16.39;71.03
20987;BME280;10652;50.306;8.570;2023-06-10T00:10:12;97791.56;;;16.10;72.21
20987;BME280;10652;50.306;8.570;2023-06-10T00:14:14;97787.72;;;15.91;73.49
20987;BME280;10652;50.306;8.570;2023-06-10T00:18:16;97789.44;;;15.79;74.06
20987;BME280;10652;50.306;8.570;2023-06-10T00:22:19;97794.88;;;15.65;74.63
20987;BME280;10652;50.306;8.570;2023-06-10T00:26:23;97790.53;;;15.51;75.29
20987;BME280;10652;50.306;8.570;2023-06-10T00:30:26;97797.25;;;15.44;76.35
20987;BME280;10652;50.306;8.570;2023-06-10T00:34:28;97788.44;;;15.31;76.38
20987;BME280;10652;50.306;8.570;2023-06-10T00:38:30;97797.69;;;15.25;77.19
20987;BME280;10652;50.306;8.570;2023-06-10T00:42:33;97790.47;;;15.27;76.89
20987;BME280;10652;50.306;8.570;2023-06-10T00:46:35;97789.09;;;15.22;76.97
20987;BME280;10652;50.306;8.570;2023-06-10T00:50:39;97799.81;;;15.20;76.81
20987;BME280;10652;50.306;8.570;2023-06-10T00:54:41;97795.34;;;15.08;76.56
20987;BME280;10652;50.306;8.570;2023-06-10T00:58:44;97799.16;;;14.92;77.62
20987;BME280;10652;50.306;8.570;2023-06-10T01:02:46;97798.63;;;14.86;77.68
20987;BME280;10652;50.306;8.570;2023-06-10T01:11:22;97798.53;;;14.88;77.02
20987;BME280;10652;50.306;8.570;2023-06-10T01:15:28;97800.19;;;14.76;78.25
20987;BME280;10652;50.306;8.570;2023-06-10T01:19:32;97805.91;;;14.70;78.99
20987;BME280;10652;50.306;8.570;2023-06-10T01:23:36;97803.31;;;14.56;79.06
20987;BME280;10652;50.306;8.570;2023-06-10T01:27:40;97810.41;;;14.56;79.50
20987;BME280;10652;50.306;8.570;2023-06-10T01:31:58;97808.97;;;14.37;80.83
20987;BME280;10652;50.306;8.570;2023-06-10T01:36:03;97806.09;;;14.28;80.56
20987;BME280;10652;50.306;8.570;2023-06-10T01:40:07;97802.22;;;14.07;82.22
20987;BME280;10652;50.306;8.570;2023-06-10T01:44:10;97803.38;;;14.02;83.06
20987;BME280;10652;50.306;8.570;2023-06-10T01:48:14;97807.16;;;13.98;83.78
20987;BME280;10652;50.306;8.570;2023-06-10T01:52:17;97811.13;;;13.91;84.27
20987;BME280;10652;50.306;8.570;2023-06-10T01:56:19;97806.91;;;13.89;84.56
20987;BME280;10652;50.306;8.570;2023-06-10T02:00:22;97809.44;;;13.76;84.64
20987;BME280;10652;50.306;8.570;2023-06-10T02:04:24;97806.16;;;13.73;84.13
20987;BME280;10652;50.306;8.570;2023-06-10T02:08:26;97811.72;;;13.68;84.50
20987;BME280;10652;50.306;8.570;2023-06-10T02:12:29;97820.06;;;13.62;84.89
20987;BME280;10652;50.306;8.570;2023-06-10T02:16:31;97812.88;;;13.64;85.35
20987;BME280;10652;50.306;8.570;2023-06-10T02:20:34;97823.22;;;13.67;84.30
20987;BME280;10652;50.306;8.570;2023-06-10T02:24:37;97818.53;;;13.58;84.07
20987;BME280;10652;50.306;8.570;2023-06-10T02:28:42;97820.88;;;13.48;84.07
20987;BME280;10652;50.306;8.570;2023-06-10T02:32:44;97816.19;;;13.39;83.24
20987;BME280;10652;50.306;8.570;2023-06-10T02:36:52;97822.97;;;13.29;84.25
20987;BME280;10652;50.306;8.570;2023-06-10T02:40:55;97825.69;;;13.28;85.46
20987;BME280;10652;50.306;8.570;2023-06-10T02:44:58;97827.00;;;13.06;84.80
20987;BME280;10652;50.306;8.570;2023-06-10T02:49:09;97834.53;;;12.98;86.52
20987;BME280;10652;50.306;8.570;2023-06-10T02:53:12;97833.13;;;13.07;87.36
20987;BME280;10652;50.306;8.570;2023-06-10T02:57:18;97832.84;;;13.11;86.23
20987;BME280;10652;50.306;8.570;2023-06-10T03:01:21;97827.19;;;13.03;87.14
20987;BME280;10652;50.306;8.570;2023-06-10T03:05:42;97836.78;;;13.04;86.61
20987;BME280;10652;50.306;8.570;2023-06-10T03:09:44;97834.59;;;12.97;86.67
20987;BME280;10652;50.306;8.570;2023-06-10T03:13:48;97835.94;;;12.90;86.13
20987;BME280;10652;50.306;8.570;2023-06-10T03:17:52;97832.81;;;12.83;87.24
20987;BME280;10652;50.306;8.570;2023-06-10T03:22:07;97829.38;;;12.81;87.37
20987;BME280;10652;50.306;8.570;2023-06-10T03:26:12;97841.84;;;12.79;87.26
20987;BME280;10652;50.306;8.570;2023-06-10T03:30:19;97830.94;;;12.85;86.69
20987;BME280;10652;50.306;8.570;2023-06-10T03:34:22;97846.16;;;12.80;86.21
20987;BME280;10652;50.306;8.570;2023-06-10T03:38:25;97839.00;;;12.82;86.53
20987;BME280;10652;50.306;8.570;2023-06-10T03:42:28;97842.50;;;12.83;87.05
20987;BME280;10652;50.306;8.570;2023-06-10T03:46:31;97845.34;;;12.94;85.91
20987;BME280;10652;50.306;8.570;2023-06-10T03:50:34;97852.88;;;13.00;86.18
20987;BME280;10652;50.306;8.570;2023-06-10T03:54:38;97853.78;;;13.43;86.45
20987;BME280;10652;50.306;8.570;2023-06-10T03:58:40;97838.88;;;14.65;82.01
20987;BME280;10652;50.306;8.570;2023-06-10T04:02:44;97844.88;;;15.69;77.80
20987;BME280;10652;50.306;8.570;2023-06-10T04:07:00;97849.16;;;16.80;71.25
20987;BME280;10652;50.306;8.570;2023-06-10T04:11:02;97837.84;;;17.79;65.70
20987;BME280;10652;50.306;8.570;2023-06-10T04:15:05;97834.22;;;18.46;61.27
20987;BME280;10652;50.306;8.570;2023-06-10T04:19:08;97843.00;;;19.30;58.94
20987;BME280;10652;50.306;8.570;2023-06-10T04:23:10;97843.69;;;20.24;54.77
20987;BME280;10652;50.306;8.570;2023-06-10T04:27:15;97843.63;;;21.12;52.08
20987;BME280;10652;50.306;8.570;2023-06-10T04:31:17;97850.09;;;21.75;49.16
20987;BME280;10652;50.306;8.570;2023-06-10T04:35:20;97856.34;;;22.30;48.83
20987;BME280;10652;50.306;8.570;2023-06-10T04:39:23;97852.63;;;23.29;46.86
20987;BME280;10652;50.306;8.570;2023-06-10T04:43:26;97850.94;;;24.13;45.02
20987;BME280;10652;50.306;8.570;2023-06-10T04:47:31;97842.28;;;25.02;43.39
20987;BME280;10652;50.306;8.570;2023-06-10T04:51:36;97840.78;;;25.95;41.91
20987;BME280;10652;50.306;8.570;2023-06-10T04:55:40;97838.59;;;26.68;40.14
20987;BME280;10652;50.306;8.570;2023-06-10T04:59:42;97841.69;;;27.34;38.98
20987;BME280;10652;50.306;8.570;2023-06-10T05:03:44;97828.16;;;27.86;37.87
20987;BME280;10652;50.306;8.570;2023-06-10T05:07:46;97833.00;;;28.70;36.74
20987;BME280;10652;50.306;8.570;2023-06-10T05:11:49;97840.09;;;29.35;35.37
20987;BME280;10652;50.306;8.570;2023-06-10T05:15:51;97832.03;;;29.97;34.81
20987;BME280;10652;50.306;8.570;2023-06-10T05:19:53;97828.16;;;30.60;33.48
20987;BME280;10652;50.306;8.570;2023-06-10T05:23:55;97834.84;;;30.71;33.34
20987;BME280;10652;50.306;8.570;2023-06-10T05:27:58;97842.09;;;31.51;32.93
20987;BME280;10652;50.306;8.570;2023-06-10T05:32:00;97836.50;;;32.36;31.83
20987;BME280;10652;50.306;8.570;2023-06-10T05:36:05;97846.16;;;33.08;30.51
20987;BME280;10652;50.306;8.570;2023-06-10T05:40:08;97852.56;;;33.52;30.07
20987;BME280;10652;50.306;8.570;2023-06-10T05:44:10;97856.03;;;34.08;29.34
20987;BME280;10652;50.306;8.570;2023-06-10T05:48:15;97846.66;;;34.89;29.04
20987;BME280;10652;50.306;8.570;2023-06-10T05:52:17;97847.28;;;35.44;27.82
20987;BME280;10652;50.306;8.570;2023-06-10T05:56:20;97845.22;;;35.93;27.21
20987;BME280;10652;50.306;8.570;2023-06-10T06:00:24;97858.38;;;36.42;25.91
20987;BME280;10652;50.306;8.570;2023-06-10T06:04:26;97843.25;;;36.51;25.78
20987;BME280;10652;50.306;8.570;2023-06-10T06:08:28;97850.44;;;36.29;25.43
20987;BME280;10652;50.306;8.570;2023-06-10T06:12:31;97851.03;;;35.73;26.21
20987;BME280;10652;50.306;8.570;2023-06-10T06:16:33;97846.84;;;35.47;25.89
20987;BME280;10652;50.306;8.570;2023-06-10T06:20:35;97844.28;;;35.11;26.80
20987;BME280;10652;50.306;8.570;2023-06-10T06:24:37;97843.72;;;35.43;26.58
20987;BME280;10652;50.306;8.570;2023-06-10T06:28:39;97845.53;;;35.38;26.22
20987;BME280;10652;50.306;8.570;2023-06-10T06:32:41;97853.63;;;34.19;27.64
20987;BME280;10652;50.306;8.570;2023-06-10T06:36:43;97845.66;;;34.17;27.79
20987;BME280;10652;50.306;8.570;2023-06-10T06:40:46;97845.63;;;32.55;29.14
20987;BME280;10652;50.306;8.570;2023-06-10T06:44:48;97856.44;;;33.69;27.86
20987;BME280;10652;50.306;8.570;2023-06-10T06:48:50;97843.28;;;34.57;27.58
20987;BME280;10652;50.306;8.570;2023-06-10T06:52:52;97855.56;;;34.48;26.59
20987;BME280;10652;50.306;8.570;2023-06-10T06:56:54;97852.47;;;35.11;27.11
20987;BME280;10652;50.306;8.570;2023-06-10T07:00:56;97858.03;;;35.57;26.67
20987;BME280;10652;50.306;8.570;2023-06-10T07:05:00;97852.34;;;36.17;25.56
20987;BME280;10652;50.306;8.570;2023-06-10T07:09:03;97857.72;;;34.94;26.61
20987;BME280;10652;50.306;8.570;2023-06-10T07:13:05;97859.97;;;35.15;26.19
20987;BME280;10652;50.306;8.570;2023-06-10T07:17:07;97858.13;;;33.88;27.19
20987;BME280;10652;50.306;8.570;2023-06-10T07:21:10;97862.06;;;29.47;32.40
20987;BME280;10652;50.306;8.570;2023-06-10T07:25:12;97858.66;;;26.74;36.07
20987;BME280;10652;50.306;8.570;2023-06-10T07:29:14;97865.44;;;25.35;38.94
20987;BME280;10652;50.306;8.570;2023-06-10T07:33:16;97873.25;;;24.56;40.37
20987;BME280;10652;50.306;8.570;2023-06-10T07:37:18;97874.81;;;23.91;41.80
20987;BME280;10652;50.306;8.570;2023-06-10T07:41:23;97870.69;;;23.71;42.96
20987;BME280;10652;50.306;8.570;2023-06-10T07:45:27;97872.69;;;23.68;43.34
20987;BME280;10652;50.306;8.570;2023-06-10T07:49:29;97865.31;;;23.71;44.25
20987;BME280;10652;50.306;8.570;2023-06-10T07:53:32;97874.50;;;23.42;44.70
20987;BME280;10652;50.306;8.570;2023-06-10T07:57:34;97872.13;;;23.39;44.99
20987;BME280;10652;50.306;8.570;2023-06-10T08:01:38;97870.00;;;23.25;44.59
20987;BME280;10652;50.306;8.570;2023-06-10T08:05:41;97871.50;;;23.02;44.10
20987;BME280;10652;50.306;8.570;2023-06-10T08:09:43;97858.69;;;22.96;45.66
20987;BME280;10652;50.306;8.570;2023-06-10T08:13:45;97864.16;;;22.76;45.55
20987;BME280;10652;50.306;8.570;2023-06-10T08:17:47;97860.66;;;22.76;46.41
20987;BME280;10652;50.306;8.570;2023-06-10T08:21:49;97861.59;;;22.85;47.15
20987;BME280;10652;50.306;8.570;2023-06-10T08:25:52;97869.28;;;22.97;46.07
20987;BME280;10652;50.306;8.570;2023-06-10T08:29:54;97867.50;;;23.06;45.76
20987;BME280;10652;50.306;8.570;2023-06-10T08:33:56;97864.28;;;23.02;47.45
20987;BME280;10652;50.306;8.570;2023-06-10T08:37:58;97861.88;;;23.17;47.58
20987;BME280;10652;50.306;8.570;2023-06-10T08:42:04;97869.69;;;23.28;46.59
20987;BME280;10652;50.306;8.570;2023-06-10T08:46:13;97873.88;;;23.31;46.79
20987;BME280;10652;50.306;8.570;2023-06-10T08:50:16;97868.94;;;23.18;47.12
20987;BME280;10652;50.306;8.570;2023-06-10T08:54:22;97863.56;;;23.18;47.51
20987;BME280;10652;50.306;8.570;2023-06-10T08:58:26;97860.50;;;23.13;46.93
20987;BME280;10652;50.306;8.570;2023-06-10T09:02:29;97863.81;;;23.24;46.64
20987;BME280;10652;50.306;8.570;2023-06-10T09:06:32;97860.66;;;23.29;47.57
20987;BME280;10652;50.306;8.570;2023-06-10T09:10:35;97855.91;;;23.49;47.63
20987;BME280;10652;50.306;8.570;2023-06-10T09:14:38;97854.53;;;23.62;46.17
20987;BME280;10652;50.306;8.570;2023-06-10T09:18:40;97851.91;;;23.71;43.87
20987;BME280;10652;50.306;8.570;2023-06-10T09:22:42;97848.41;;;23.78;43.83
20987;BME280;10652;50.306;8.570;2023-06-10T09:26:45;97854.03;;;23.93;44.00
20987;BME280;10652;50.306;8.570;2023-06-10T09:30:47;97851.25;;;24.10;43.69
20987;BME280;10652;50.306;8.570;2023-06-10T09:34:50;97848.72;;;24.09;42.77
20987;BME280;10652;50.306;8.570;2023-06-10T09:38:56;97849.25;;;24.12;41.50
20987;BME280;10652;50.306;8.570;2023-06-10T09:42:59;97851.78;;;24.14;42.85
20987;BME280;10652;50.306;8.570;2023-06-10T09:47:01;97849.13;;;24.22;42.52
20987;BME280;10652;50.306;8.570;2023-06-10T09:51:08;97845.75;;;24.20;43.32
20987;BME280;10652;50.306;8.570;2023-06-10T09:55:11;97859.88;;;24.22;42.92
20987;BME280;10652;50.306;8.570;2023-06-10T09:59:13;97837.25;;;24.25;43.01
20987;BME280;10652;50.306;8.570;2023-06-10T10:03:22;97839.75;;;24.26;42.64
20987;BME280;10652;50.306;8.570;2023-06-10T10:07:24;97828.31;;;24.16;43.58
20987;BME280;10652;50.306;8.570;2023-06-10T10:11:27;97830.06;;;24.33;43.12
20987;BME280;10652;50.306;8.570;2023-06-10T10:15:31;97829.78;;;24.52;44.59
20987;BME280;10652;50.306;8.570;2023-06-10T10:19:38;97828.44;;;24.57;42.58
20987;BME280;10652;50.306;8.570;2023-06-10T10:24:12;97820.72;;;24.62;43.47
20987;BME280;10652;50.306;8.570;2023-06-10T10:28:20;97818.38;;;24.83;43.84
20987;BME280;10652;50.306;8.570;2023-06-10T10:32:32;97821.94;;;24.99;42.91
20987;BME280;10652;50.306;8.570;2023-06-10T10:36:37;97822.47;;;25.11;42.76
20987;BME280;10652;50.306;8.570;2023-06-10T10:40:40;97817.56;;;25.23;42.07
20987;BME280;10652;50.306;8.570;2023-06-10T10:44:44;97810.00;;;25.26;42.99
20987;BME280;10652;50.306;8.570;2023-06-10T10:48:52;97802.91;;;25.50;42.44
20987;BME280;10652;50.306;8.570;2023-06-10T10:53:03;97808.28;;;25.58;42.57
20987;BME280;10652;50.306;8.570;2023-06-10T10:57:20;97792.13;;;25.66;41.15
20987;BME280;10652;50.306;8.570;2023-06-10T11:01:23;97788.41;;;25.75;39.08
20987;BME280;10652;50.306;8.570;2023-06-10T11:05:42;97809.53;;;25.86;37.23
20987;BME280;10652;50.306;8.570;2023-06-10T11:10:12;97801.72;;;26.15;35.25
20987;BME280;10652;50.306;8.570;2023-06-10T11:14:26;97783.19;;;26.12;35.90
20987;BME280;10652;50.306;8.570;2023-06-10T11:18:30;97795.59;;;26.29;34.47
20987;BME280;10652;50.306;8.570;2023-06-10T11:23:02;97797.78;;;26.49;33.40
20987;BME280;10652;50.306;8.570;2023-06-10T11:27:21;97787.78;;;26.57;34.01
20987;BME280;10652;50.306;8.570;2023-06-10T11:31:32;97818.97;;;26.60;33.14
20987;BME280;10652;50.306;8.570;2023-06-10T11:35:35;97797.34;;;26.14;32.96
20987;BME280;10652;50.306;8.570;2023-06-10T11:39:38;97785.06;;;26.04;33.30
20987;BME280;10652;50.306;8.570;2023-06-10T11:43:44;97782.88;;;26.15;33.53
20987;BME280;10652;50.306;8.570;2023-06-10T11:47:59;97788.25;;;26.15;32.92
20987;BME280;10652;50.306;8.570;2023-06-10T11:52:04;97773.03;;;26.22;33.16
20987;BME280;10652;50.306;8.570;2023-06-10T11:56:06;97785.88;;;26.20;33.34
20987;BME280;10652;50.306;8.570;2023-06-10T12:00:09;97771.97;;;26.32;32.16
20987;BME280;10652;50.306;8.570;2023-06-10T12:04:16;97777.50;;;26.38;34.07
20987;BME280;10652;50.306;8.570;2023-06-10T12:08:20;97774.66;;;26.32;34.18
20987;BME280;10652;50.306;8.570;2023-06-10T12:12:22;97791.50;;;26.34;34.20
20987;BME280;10652;50.306;8.570;2023-06-10T12:16:24;97771.88;;;26.17;34.38
20987;BME280;10652;50.306;8.570;2023-06-10T12:20:28;97773.66;;;26.33;34.95
20987;BME280;10652;50.306;8.570;2023-06-10T12:24:31;97778.00;;;26.64;34.48
20987;BME280;10652;50.306;8.570;2023-06-10T12:28:33;97766.13;;;26.96;33.63
20987;BME280;10652;50.306;8.570;2023-06-10T12:36:48;97760.28;;;27.07;33.35
20987;BME280;10652;50.306;8.570;2023-06-10T12:40:50;97767.69;;;26.68;33.99
20987;BME280;10652;50.306;8.570;2023-06-10T12:44:53;97768.28;;;26.33;34.87
20987;BME280;10652;50.306;8.570;2023-06-10T12:48:56;97766.78;;;26.30;36.39
20987;BME280;10652;50.306;8.570;2023-06-10T12:52:59;97762.53;;;26.36;36.71
20987;BME280;10652;50.306;8.570;2023-06-10T12:57:02;97757.44;;;26.41;36.16
20987;BME280;10652;50.306;8.570;2023-06-10T13:01:04;97758.97;;;26.43;36.15
20987;BME280;10652;50.306;8.570;2023-06-10T13:05:07;97759.88;;;26.27;36.08
20987;BME280;10652;50.306;8.570;2023-06-10T13:09:10;97756.94;;;26.14;36.57
20987;BME280;10652;50.306;8.570;2023-06-10T13:13:12;97753.50;;;26.28;37.12
20987;BME280;10652;50.306;8.570;2023-06-10T13:17:16;97759.00;;;26.58;36.97
20987;BME280;10652;50.306;8.570;2023-06-10T13:21:18;97741.41;;;26.70;36.94
20987;BME280;10652;50.306;8.570;2023-06-10T13:25:20;97749.50;;;27.07;37.05
20987;BME280;10652;50.306;8.570;2023-06-10T13:29:23;97739.53;;;27.31;35.92
20987;BME280;10652;50.306;8.570;2023-06-10T13:33:25;97743.53;;;27.35;36.49
20987;BME280;10652;50.306;8.570;2023-06-10T13:37:27;97748.50;;;27.08;36.30
20987;BME280;10652;50.306;8.570;2023-06-10T13:41:29;97731.41;;;26.56;36.71
20987;BME280;10652;50.306;8.570;2023-06-10T13:45:31;97733.72;;;26.59;37.97
20987;BME280;10652;50.306;8.570;2023-06-10T13:49:33;97735.19;;;26.47;37.86
20987;BME280;10652;50.306;8.570;2023-06-10T13:53:35;97741.81;;;26.59;37.67
20987;BME280;10652;50.306;8.570;2023-06-10T13:57:38;97732.72;;;26.60;37.93
20987;BME280;10652;50.306;8.570;2023-06-10T14:01:40;97730.22;;;26.81;37.97
20987;BME280;10652;50.306;8.570;2023-06-10T14:05:42;97728.28;;;26.67;37.52
20987;BME280;10652;50.306;8.570;2023-06-10T14:09:44;97737.56;;;26.64;38.61
20987;BME280;10652;50.306;8.570;2023-06-10T14:13:47;97725.34;;;26.54;37.97
20987;BME280;10652;50.306;8.570;2023-06-10T14:17:49;97716.09;;;26.56;37.83
20987;BME280;10652;50.306;8.570;2023-06-10T14:21:51;97719.69;;;26.71;37.97
20987;BME280;10652;50.306;8.570;2023-06-10T14:25:55;97715.03;;;26.80;37.54
20987;BME280;10652;50.306;8.570;2023-06-10T14:29:57;97710.72;;;27.08;36.13
20987;BME280;10652;50.306;8.570;2023-06-10T14:33:59;97704.34;;;27.24;36.57
20987;BME280;10652;50.306;8.570;2023-06-10T14:38:01;97710.28;;;27.20;36.74
20987;BME280;10652;50.306;8.570;2023-06-10T14:42:05;97709.38;;;26.75;37.37
20987;BME280;10652;50.306;8.570;2023-06-10T14:46:08;97707.34;;;26.32;37.16
20987;BME280;10652;50.306;8.570;2023-06-10T14:50:10;97703.03;;;26.22;37.76
20987;BME280;10652;50.306;8.570;2023-06-10T14:54:12;97710.69;;;26.34;37.88
20987;BME280;10652;50.306;8.570;2023-06-10T14:58:14;97707.56;;;26.45;37.66
20987;BME280;10652;50.306;8.570;2023-06-10T15:02:16;97692.38;;;26.75;37.87
20987;BME280;10652;50.306;8.570;2023-06-10T15:06:18;97696.19;;;26.80;36.99
20987;BME280;10652;50.306;8.570;2023-06-10T15:10:23;97700.53;;;26.44;36.53
20987;BME280;10652;50.306;8.570;2023-06-10T15:14:25;97708.50;;;26.06;37.52
20987;BME280;10652;50.306;8.570;2023-06-10T15:18:27;97692.41;;;25.90;37.66
20987;BME280;10652;50.306;8.570;2023-06-10T15:22:29;97683.75;;;26.11;37.75
20987;BME280;10652;50.306;8.570;2023-06-10T15:26:33;97682.78;;;26.26;37.49
20987;BME280;10652;50.306;8.570;2023-06-10T15:30:35;97688.69;;;26.30;38.09
20987;BME280;10652;50.306;8.570;2023-06-10T15:34:39;97686.38;;;26.42;37.94
20987;BME280;10652;50.306;8.570;2023-06-10T15:38:41;97683.41;;;26.37;37.70
20987;BME280;10652;50.306;8.570;2023-06-10T15:42:43;97681.69;;;26.44;37.45
20987;BME280;10652;50.306;8.570;2023-06-10T15:46:45;97682.53;;;26.59;37.58
20987;BME280;10652;50.306;8.570;2023-06-10T15:50:48;97678.09;;;26.66;37.67
20987;BME280;10652;50.306;8.570;2023-06-10T15:54:50;97676.22;;;26.52;37.59
20987;BME280;10652;50.306;8.570;2023-06-10T15:58:52;97672.03;;;26.26;37.98
20987;BME280;10652;50.306;8.570;2023-06-10T16:02:54;97677.78;;;26.23;37.56
20987;BME280;10652;50.306;8.570;2023-06-10T16:06:56;97675.75;;;26.25;38.52
20987;BME280;10652;50.306;8.570;2023-06-10T16:10:59;97680.69;;;26.37;38.08
20987;BME280;10652;50.306;8.570;2023-06-10T16:15:01;97673.00;;;26.34;38.41
20987;BME280;10652;50.306;8.570;2023-06-10T16:19:03;97680.63;;;26.22;38.99
20987;BME280;10652;50.306;8.570;2023-06-10T16:23:06;97675.78;;;26.17;38.15
20987;BME280;10652;50.306;8.570;2023-06-10T16:27:08;97682.41;;;26.07;39.03
20987;BME280;10652;50.306;8.570;2023-06-10T16:31:10;97676.19;;;26.06;38.82
20987;BME280;10652;50.306;8.570;2023-06-10T16:35:12;97681.44;;;26.00;39.41
20987;BME280;10652;50.306;8.570;2023-06-10T16:39:14;97677.59;;;25.94;40.04
20987;BME280;10652;50.306;8.570;2023-06-10T16:43:16;97680.81;;;25.90;40.18
20987;BME280;10652;50.306;8.570;2023-06-10T16:47:18;97685.03;;;25.92;39.52
20987;BME280;10652;50.306;8.570;2023-06-10T16:51:21;97684.03;;;25.85;39.20
20987;BME280;10652;50.306;8.570;2023-06-10T16:55:23;97686.31;;;25.73;39.77
20987;BME280;10652;50.306;8.570;2023-06-10T16:59:25;97689.53;;;25.69;40.05
20987;BME280;10652;50.306;8.570;2023-06-10T17:03:27;97685.94;;;25.76;40.10
20987;BME280;10652;50.306;8.570;2023-06-10T17:07:30;97687.09;;;25.82;40.42
20987;BME280;10652;50.306;8.570;2023-06-10T17:11:32;97697.53;;;25.77;40.49
20987;BME280;10652;50.306;8.570;2023-06-10T17:15:35;97704.56;;;25.55;40.33
20987;BME280;10652;50.306;8.570;2023-06-10T17:19:37;97695.31;;;25.50;41.00
20987;BME280;10652;50.306;8.570;2023-06-10T17:23:39;97700.34;;;25.44;41.84
20987;BME280;10652;50.306;8.570;2023-06-10T17:27:41;97699.09;;;25.24;41.71
20987;BME280;10652;50.306;8.570;2023-06-10T17:31:43;97705.81;;;25.12;42.44
20987;BME280;10652;50.306;8.570;2023-06-10T17:35:46;97715.44;;;25.07;42.80
20987;BME280;10652;50.306;8.570;2023-06-10T17:39:48;97716.28;;;24.99;42.64
20987;BME280;10652;50.306;8.570;2023-06-10T17:43:50;97727.03;;;24.83;43.36
20987;BME280;10652;50.306;8.570;2023-06-10T17:47:52;97734.56;;;24.63;44.17
20987;BME280;10652;50.306;8.570;2023-06-10T17:51:54;97748.16;;;24.53;44.87
20987;BME280;10652;50.306;8.570;2023-06-10T17:55:56;97750.69;;;24.47;44.83
20987;BME280;10652;50.306;8.570;2023-06-10T18:00:03;97750.50;;;24.32;45.06
20987;BME280;10652;50.306;8.570;2023-06-10T18:04:08;97756.03;;;24.23;45.17
20987;BME280;10652;50.306;8.570;2023-06-10T18:08:11;97751.44;;;24.15;45.83
20987;BME280;10652;50.306;8.570;2023-06-10T18:12:13;97750.75;;;24.05;45.05
20987;BME280;10652;50.306;8.570;2023-06-10T18:16:16;97767.13;;;23.86;44.37
20987;BME280;10652;50.306;8.570;2023-06-10T18:20:18;97766.06;;;23.71;44.24
20987;BME280;10652;50.306;8.570;2023-06-10T18:24:20;97766.34;;;23.59;44.36
20987;BME280;10652;50.306;8.570;2023-06-10T18:28:23;97763.94;;;23.48;43.40
20987;BME280;10652;50.306;8.570;2023-06-10T18:32:26;97780.97;;;23.39;43.31
20987;BME280;10652;50.306;8.570;2023-06-10T18:36:29;97770.19;;;23.31;43.59
20987;BME280;10652;50.306;8.570;2023-06-10T18:40:31;97779.16;;;23.22;43.96
20987;BME280;10652;50.306;8.570;2023-06-10T18:44:33;97775.91;;;23.10;44.05
20987;BME280;10652;50.306;8.570;2023-06-10T18:48:35;97783.34;;;22.99;44.25
20987;BME280;10652;50.306;8.570;2023-06-10T18:52:37;97789.13;;;22.86;44.67
20987;BME280;10652;50.306;8.570;2023-06-10T18:56:39;97799.38;;;22.73;45.49
20987;BME280;10652;50.306;8.570;2023-06-10T19:00:42;97798.91;;;22.60;45.67
20987;BME280;10652;50.306;8.570;2023-06-10T19:04:44;97803.81;;;22.47;46.55
20987;BME280;10652;50.306;8.570;2023-06-10T19:08:46;97799.81;;;22.33;46.57
20987;BME280;10652;50.306;8.570;2023-06-10T19:12:48;97808.63;;;22.25;46.92
20987;BME280;10652;50.306;8.570;2023-06-10T19:16:51;97808.50;;;22.17;47.02
20987;BME280;10652;50.306;8.570;2023-06-10T19:20:53;97816.09;;;22.12;46.90
20987;BME280;10652;50.306;8.570;2023-06-10T19:25:03;97819.41;;;22.06;47.15
20987;BME280;10652;50.306;8.570;2023-06-10T19:29:05;97822.66;;;22.00;47.24
20987;BME280;10652;50.306;8.570;2023-06-10T19:33:07;97824.09;;;21.94;47.33
20987;BME280;10652;50.306;8.570;2023-06-10T19:37:12;97822.47;;;21.84;47.42
20987;BME280;10652;50.306;8.570;2023-06-10T19:41:15;97829.16;;;21.70;48.15
20987;BME280;10652;50.306;8.570;2023-06-10T19:45:18;97831.31;;;21.57;48.46
20987;BME280;10652;50.306;8.570;2023-06-10T19:49:20;97833.00;;;21.48;48.54
20987;BME280;10652;50.306;8.570;2023-06-10T19:53:23;97846.25;;;21.50;48.99
20987;BME280;10652;50.306;8.570;2023-06-10T19:57:25;97845.94;;;21.53;49.13
20987;BME280;10652;50.306;8.570;2023-06-10T20:01:27;97851.00;;;21.56;48.78
20987;BME280;10652;50.306;8.570;2023-06-10T20:05:29;97851.88;;;21.57;49.26
20987;BME280;10652;50.306;8.570;2023-06-10T20:09:31;97855.66;;;21.54;49.56
20987;BME280;10652;50.306;8.570;2023-06-10T20:13:34;97857.78;;;21.51;49.86
20987;BME280;10652;50.306;8.570;2023-06-10T20:17:36;97854.69;;;21.45;49.73
20987;BME280;10652;50.306;8.570;2023-06-10T20:21:38;97861.41;;;21.40;50.33
20987;BME280;10652;50.306;8.570;2023-06-10T20:25:40;97868.22;;;21.34;50.79
20987;BME280;10652;50.306;8.570;2023-06-10T20:29:42;97879.47;;;21.28;50.64
20987;BME280;10652;50.306;8.570;2023-06-10T20:33:45;97879.16;;;21.22;50.78
20987;BME280;10652;50.306;8.570;2023-06-10T20:37:47;97883.13;;;21.18;51.45
20987;BME280;10652;50.306;8.570;2023-06-10T20:41:50;97882.00;;;21.11;50.98
20987;BME280;10652;50.306;8.570;2023-06-10T20:45:53;97886.22;;;21.03;51.82
20987;BME280;10652;50.306;8.570;2023-06-10T20:49:55;97885.41;;;20.93;52.27
20987;BME280;10652;50.306;8.570;2023-06-10T20:53:57;97887.50;;;20.80;52.48
20987;BME280;10652;50.306;8.570;2023-06-10T20:57:59;97882.84;;;20.73;52.98
20987;BME280;10652;50.306;8.570;2023-06-10T21:02:01;97890.25;;;20.69;53.21
20987;BME280;10652;50.306;8.570;2023-06-10T21:06:04;97889.00;;;20.63;53.37
20987;BME280;10652;50.306;8.570;2023-06-10T21:10:06;97880.53;;;20.58;53.92
20987;BME280;10652;50.306;8.570;2023-06-10T21:14:09;97895.16;;;20.54;54.31
20987;BME280;10652;50.306;8.570;2023-06-10T21:18:11;97900.34;;;20.46;54.41
20987;BME280;10652;50.306;8.570;2023-06-10T21:22:13;97893.16;;;20.37;54.78
20987;BME280;10652;50.306;8.570;2023-06-10T21:26:15;97899.63;;;20.35;55.18
20987;BME280;10652;50.306;8.570;2023-06-10T21:30:17;97891.88;;;20.32;55.42
20987;BME280;10652;50.306;8.570;2023-06-10T21:34:20;97896.78;;;20.27;55.68
20987;BME280;10652;50.306;8.570;2023-06-10T21:38:22;97903.38;;;20.23;56.10